Time;durP1;ratioP1;P1;durP2;ratioP2;P2;SDS_P1;SDS_P2;PMS_P1;PMS_P2;Temp;Humidity;BMP_temperature;BMP_pressure;BME280_temperature;BME280_humidity;BME280_pressure;Samples;Min_cycle;Max_cycle;Signal;HPM_P1;HPM_P2
2022/01/12 00:00:56;;;;;;;22.90;10.77;;;3.50;51.40;;;;;;5055692;28;20028;-86
2022/01/12 00:03:27;;;;;;;22.63;10.02;;;3.50;51.80;;;;;;5058668;28;20028;-87
2022/01/12 00:05:53;;;;;;;20.83;8.82;;;3.30;52.00;;;;;;5058899;28;20063;-86
2022/01/12 00:08:18;;;;;;;20.15;9.48;;;3.20;51.60;;;;;;5056643;28;20062;-86
2022/01/12 00:10:44;;;;;;;20.13;9.43;;;3.20;52.50;;;;;;5058888;28;20497;-86
2022/01/12 00:13:10;;;;;;;22.77;11.00;;;3.20;53.20;;;;;;5058747;28;20020;-87
2022/01/12 00:15:38;;;;;;;20.83;9.63;;;3.40;53.00;;;;;;5058567;28;20020;-86
2022/01/12 00:18:04;;;;;;;21.55;10.50;;;3.60;52.20;;;;;;5046129;28;20031;-85
2022/01/12 00:20:33;;;;;;;24.60;11.00;;;3.50;51.40;;;;;;5056272;28;20021;-88
2022/01/12 00:22:58;;;;;;;29.30;10.88;;;3.40;50.60;;;;;;5038799;28;20025;-87
2022/01/12 00:25:31;;;;;;;24.50;11.23;;;3.30;50.90;;;;;;5056054;28;20037;-86
2022/01/12 00:33:39;;;;;;;23.65;10.43;;;3.30;52.00;;;;;;5076483;28;20491;-87
2022/01/12 00:36:05;;;;;;;20.20;9.40;;;3.60;51.90;;;;;;5048735;28;20029;-87
2022/01/12 00:38:31;;;;;;;22.27;10.60;;;3.80;50.80;;;;;;5055687;28;20051;-87
2022/01/12 00:40:57;;;;;;;20.27;9.93;;;3.90;50.20;;;;;;5038291;28;20033;-86
2022/01/12 00:43:26;;;;;;;21.05;9.80;;;4.00;50.20;;;;;;5056300;28;20074;-86
2022/01/12 00:45:52;;;;;;;21.60;9.93;;;3.90;49.60;;;;;;5058230;28;20035;-87
2022/01/12 00:48:18;;;;;;;20.15;9.95;;;3.90;50.30;;;;;;5057650;28;20262;-88
2022/01/12 00:50:45;;;;;;;18.98;9.82;;;3.70;49.50;;;;;;5058402;28;20024;-87
2022/01/12 00:53:13;;;;;;;23.70;10.02;;;3.70;49.90;;;;;;5057759;28;20028;-87
2022/01/12 00:55:38;;;;;;;20.08;9.25;;;3.50;51.20;;;;;;5038475;28;20025;-88
2022/01/12 00:58:04;;;;;;;22.30;9.82;;;3.50;51.10;;;;;;5037959;28;20035;-88
2022/01/12 01:00:31;;;;;;;25.08;10.82;;;3.50;50.10;;;;;;5038021;28;20115;-87
2022/01/12 01:02:57;;;;;;;20.30;9.35;;;3.30;49.90;;;;;;5038190;28;20033;-86
2022/01/12 01:05:25;;;;;;;28.33;11.55;;;3.30;50.40;;;;;;5037570;28;20041;-87
2022/01/12 01:07:52;;;;;;;27.48;11.05;;;3.10;50.50;;;;;;5049942;28;20044;-89
2022/01/12 01:10:45;;;;;;;28.13;10.50;;;3.20;50.30;;;;;;5057926;28;20115;-88
2022/01/12 01:13:06;;;;;;;23.02;10.60;;;3.50;50.00;;;;;;5074750;28;20090;-88
2022/01/12 01:26:43;;;;;;;24.08;9.30;;;3.50;50.70;;;;;;4958238;28;20046;-89
2022/01/12 01:29:09;;;;;;;19.60;8.98;;;3.40;50.50;;;;;;4958403;28;20031;-88
2022/01/12 01:31:36;;;;;;;20.90;9.45;;;3.10;49.90;;;;;;4958147;28;20042;-90
2022/01/12 01:34:09;;;;;;;18.10;8.45;;;3.10;50.00;;;;;;4974549;28;20023;-87
2022/01/12 01:36:36;;;;;;;14.60;7.43;;;3.00;50.70;;;;;;4974010;28;20042;-87
2022/01/12 01:39:04;;;;;;;19.17;8.63;;;2.90;51.30;;;;;;4974252;28;20026;-88
2022/01/12 01:41:30;;;;;;;17.73;9.07;;;2.80;52.40;;;;;;4974281;28;20035;-88
2022/01/12 01:54:46;;;;;;;15.90;8.57;;;3.40;51.40;;;;;;4934490;28;20126;-88
2022/01/12 01:57:12;;;;;;;19.50;8.18;;;3.40;52.10;;;;;;4981641;28;20124;-87
2022/01/12 01:59:38;;;;;;;23.05;8.50;;;3.40;52.10;;;;;;4977196;28;20113;-88
2022/01/12 02:02:04;;;;;;;17.73;8.40;;;3.70;52.10;;;;;;4977013;28;20026;-88
2022/01/12 02:04:30;;;;;;;18.92;8.55;;;3.70;51.80;;;;;;4992886;28;20053;-89
2022/01/12 02:06:58;;;;;;;19.40;8.80;;;3.20;52.90;;;;;;4976372;28;20042;-87
2022/01/12 02:09:24;;;;;;;21.70;8.80;;;3.00;53.40;;;;;;4977126;28;20049;-89
2022/01/12 02:11:52;;;;;;;18.58;8.88;;;2.90;53.90;;;;;;4977092;28;20042;-87
2022/01/12 02:14:18;;;;;;;18.17;9.18;;;2.80;53.90;;;;;;4993273;28;20042;-87
2022/01/12 02:16:54;;;;;;;18.08;8.45;;;2.80;53.80;;;;;;4976252;28;20041;-89
2022/01/12 02:35:54;;;;;;;20.73;9.35;;;2.60;54.80;;;;;;5074459;28;20507;-87
2022/01/12 02:41:06;;;;;;;21.52;9.25;;;2.90;54.10;;;;;;5054372;28;20524;-88
2022/01/12 02:53:38;;;;;;;19.80;8.93;;;2.10;55.30;;;;;;5074514;28;20034;-88
2022/01/12 02:54:21;;;;;;;19.50;9.60;;;1.90;56.00;;;;;;5073766;28;20025;-89
2022/01/12 02:56:47;;;;;;;20.75;9.55;;;1.80;56.20;;;;;;5055617;28;20029;-90
2022/01/12 02:59:13;;;;;;;18.55;8.25;;;1.80;56.50;;;;;;5056009;28;20452;-88
2022/01/12 03:02:30;;;;;;;16.95;8.25;;;2.00;56.50;;;;;;5045056;28;20551;-88
2022/01/12 03:04:25;;;;;;;18.20;9.50;;;2.10;55.50;;;;;;5039447;28;20056;-88
2022/01/12 03:06:53;;;;;;;19.63;9.90;;;1.90;55.80;;;;;;5056154;28;20041;-87
2022/01/12 03:09:18;;;;;;;18.05;9.20;;;1.80;56.00;;;;;;5040100;28;20040;-87
2022/01/12 03:11:44;;;;;;;20.00;9.18;;;1.70;56.60;;;;;;5039856;28;20029;-88
2022/01/12 03:14:15;;;;;;;22.48;9.10;;;1.80;56.60;;;;;;5040289;28;20407;-87
2022/01/12 03:16:44;;;;;;;19.58;9.20;;;1.70;56.30;;;;;;5039833;28;20383;-87
2022/01/12 03:19:09;;;;;;;18.58;8.43;;;1.60;56.40;;;;;;5039760;28;20060;-88
2022/01/12 03:21:35;;;;;;;21.60;10.05;;;1.80;56.60;;;;;;5039796;28;20115;-87
2022/01/12 03:24:04;;;;;;;20.75;10.18;;;1.90;55.80;;;;;;5049409;28;20171;-91
2022/01/12 03:26:33;;;;;;;20.42;9.43;;;2.20;55.50;;;;;;5060027;28;20494;-88
2022/01/12 03:28:59;;;;;;;19.05;8.65;;;2.30;55.10;;;;;;5060335;28;20037;-87
2022/01/12 03:31:28;;;;;;;19.00;9.05;;;2.20;55.70;;;;;;5059290;28;20025;-87
2022/01/12 03:34:07;;;;;;;19.65;9.07;;;2.20;55.70;;;;;;5055280;28;20017;-88
2022/01/12 03:39:11;;;;;;;19.65;9.15;;;2.20;55.50;;;;;;5057218;28;20017;-87
2022/01/12 03:41:38;;;;;;;21.05;9.57;;;2.30;55.20;;;;;;5039490;28;20029;-88
2022/01/12 03:44:08;;;;;;;18.67;9.07;;;2.40;54.80;;;;;;5075056;28;20471;-88
2022/01/12 03:46:47;;;;;;;20.63;9.35;;;2.30;55.10;;;;;;5059232;28;20079;-91
2022/01/12 03:49:14;;;;;;;19.00;8.93;;;2.10;55.20;;;;;;5057427;28;20471;-90
2022/01/12 03:51:40;;;;;;;20.23;9.65;;;1.90;55.70;;;;;;5039376;28;20487;-89
2022/01/12 03:54:06;;;;;;;21.73;9.73;;;1.80;56.10;;;;;;5039098;28;20029;-88
2022/01/12 03:56:41;;;;;;;18.55;9.75;;;1.70;56.80;;;;;;5039238;28;20024;-87
2022/01/12 03:59:07;;;;;;;25.08;9.85;;;1.50;57.00;;;;;;5056966;28;20372;-87
2022/01/12 04:01:36;;;;;;;18.73;8.85;;;1.60;56.90;;;;;;5058555;28;20059;-88
2022/01/12 04:04:06;;;;;;;21.33;9.93;;;1.80;56.30;;;;;;5058996;28;20033;-88
2022/01/12 04:09:17;;;;;;;21.58;9.60;;;1.90;55.70;;;;;;5076394;28;20036;-90
2022/01/12 04:11:43;;;;;;;24.52;10.15;;;1.60;56.10;;;;;;5054158;28;20439;-86
2022/01/12 04:14:10;;;;;;;21.42;9.52;;;1.30;56.70;;;;;;5056522;28;20059;-86
2022/01/12 04:16:37;;;;;;;19.55;9.68;;;1.20;57.00;;;;;;5038700;28;20051;-87
2022/01/12 04:19:03;;;;;;;16.77;8.93;;;1.00;57.90;;;;;;5037902;28;20025;-87
2022/01/12 04:21:31;;;;;;;21.77;10.30;;;0.90;58.50;;;;;;5056259;28;20044;-88
2022/01/12 04:23:58;;;;;;;21.35;10.05;;;1.10;57.90;;;;;;5045391;28;20040;-87
2022/01/12 04:26:30;;;;;;;22.55;9.98;;;1.10;57.60;;;;;;5058245;28;20036;-88
2022/01/12 04:28:56;;;;;;;21.85;10.73;;;1.00;57.90;;;;;;5058395;28;20539;-88
2022/01/12 04:31:21;;;;;;;23.27;10.10;;;0.90;58.30;;;;;;5049311;28;20124;-90
2022/01/12 04:33:48;;;;;;;24.92;10.48;;;1.20;57.70;;;;;;5037904;28;20112;-90
2022/01/12 04:36:14;;;;;;;22.00;10.20;;;1.60;56.60;;;;;;5044270;28;20119;-86
2022/01/12 04:38:42;;;;;;;22.75;10.32;;;1.70;56.50;;;;;;5074669;28;20056;-87
2022/01/12 04:41:10;;;;;;;22.25;10.55;;;1.80;55.90;;;;;;5078998;28;20078;-88
2022/01/12 04:43:40;;;;;;;23.05;10.90;;;1.50;56.40;;;;;;5078178;28;20024;-89
2022/01/12 04:51:06;;;;;;;23.65;11.25;;;1.10;58.20;;;;;;5066705;28;20029;-90
2022/01/12 04:53:31;;;;;;;24.63;10.52;;;1.10;58.20;;;;;;5055873;28;20076;-91
2022/01/12 04:55:58;;;;;;;27.20;10.52;;;1.50;57.80;;;;;;5055434;28;20031;-91
2022/01/12 04:58:27;;;;;;;23.67;10.45;;;1.50;56.60;;;;;;5037995;28;20029;-90
2022/01/12 05:01:02;;;;;;;23.42;10.20;;;1.70;57.20;;;;;;5052632;28;20021;-89
2022/01/12 05:09:12;;;;;;;22.13;10.63;;;1.90;55.50;;;;;;5055620;28;20051;-89
2022/01/12 05:14:36;;;;;;;23.83;11.00;;;1.50;55.90;;;;;;5066050;28;20384;-88
2022/01/12 05:17:02;;;;;;;25.88;11.90;;;1.20;57.00;;;;;;5039819;28;20469;-87
2022/01/12 05:19:29;;;;;;;23.73;11.75;;;1.00;57.20;;;;;;5051433;28;20107;-85
2022/01/12 05:21:54;;;;;;;28.05;11.57;;;1.30;57.00;;;;;;5077428;28;20032;-89
2022/01/12 05:24:20;;;;;;;26.58;11.50;;;1.10;57.80;;;;;;5041134;28;20051;-90
2022/01/12 05:26:46;;;;;;;27.35;12.40;;;0.90;58.60;;;;;;5055311;28;20505;-86
2022/01/12 05:29:13;;;;;;;27.20;12.25;;;1.00;58.40;;;;;;5057478;28;20119;-88
2022/01/12 05:31:39;;;;;;;34.58;14.00;;;1.00;58.50;;;;;;5047176;28;20024;-91
2022/01/12 05:34:04;;;;;;;28.38;12.43;;;1.20;57.90;;;;;;5037809;28;20040;-86
2022/01/12 05:36:32;;;;;;;31.10;13.50;;;1.50;57.00;;;;;;5057177;28;20078;-86
2022/01/12 05:38:59;;;;;;;28.05;11.98;;;1.60;56.50;;;;;;5056437;28;20036;-91
2022/01/12 05:41:25;;;;;;;27.63;13.20;;;1.70;56.30;;;;;;5042903;28;20028;-88
2022/01/12 05:44:15;;;;;;;28.52;12.77;;;1.70;55.80;;;;;;5041428;28;20025;-92
2022/01/12 05:46:42;;;;;;;28.58;12.20;;;1.00;57.80;;;;;;4978449;28;20125;-90
2022/01/12 05:51:53;;;;;;;33.17;13.65;;;1.00;58.10;;;;;;5012970;28;20100;-87
2022/01/12 05:54:18;;;;;;;29.55;13.48;;;0.90;57.50;;;;;;4994262;28;20083;-86
2022/01/12 05:56:44;;;;;;;32.80;13.90;;;0.90;57.50;;;;;;4995028;28;20021;-89
2022/01/12 05:59:10;;;;;;;28.55;12.88;;;0.90;57.60;;;;;;4995108;28;20037;-93
2022/01/12 06:01:36;;;;;;;32.00;14.38;;;0.90;57.30;;;;;;4995906;28;20030;-93
2022/01/12 06:04:01;;;;;;;34.75;15.35;;;0.90;57.50;;;;;;4995510;28;20048;-86
2022/01/12 06:06:27;;;;;;;38.50;15.52;;;1.20;57.10;;;;;;4995596;28;20046;-91
2022/01/12 06:08:53;;;;;;;29.73;13.05;;;1.60;55.80;;;;;;4995888;28;20033;-93
2022/01/12 06:11:19;;;;;;;28.10;13.18;;;1.90;55.20;;;;;;4995837;28;20112;-88
2022/01/12 06:13:45;;;;;;;30.20;13.95;;;1.80;54.90;;;;;;4979315;28;20062;-93
2022/01/12 06:16:11;;;;;;;31.20;13.43;;;1.70;55.30;;;;;;4976739;28;20042;-89
2022/01/12 06:18:36;;;;;;;34.92;14.15;;;1.50;55.30;;;;;;4976866;28;20026;-93
2022/01/12 06:21:02;;;;;;;31.95;14.52;;;1.60;55.30;;;;;;4976473;28;20057;-87
2022/01/12 06:23:28;;;;;;;33.67;13.57;;;1.50;55.50;;;;;;5002250;28;20040;-92
2022/01/12 06:25:53;;;;;;;27.30;12.80;;;1.40;55.90;;;;;;5036444;28;20044;-87
2022/01/12 06:31:10;;;;;;;33.58;14.90;;;1.60;55.90;;;;;;5054176;28;20542;-85
2022/01/12 06:33:47;;;;;;;40.33;17.42;;;1.80;55.70;;;;;;5036241;28;20045;-86
2022/01/12 06:36:16;;;;;;;34.17;15.45;;;1.90;55.70;;;;;;5036607;28;20387;-85
2022/01/12 06:38:42;;;;;;;44.13;18.75;;;1.60;56.60;;;;;;5036018;28;20075;-85
2022/01/12 06:41:09;;;;;;;35.70;15.70;;;1.40;57.00;;;;;;5035643;28;20033;-88
2022/01/12 06:43:35;;;;;;;36.58;16.42;;;1.30;57.70;;;;;;5036051;28;20025;-87
2022/01/12 06:46:05;;;;;;;41.05;18.85;;;1.60;56.90;;;;;;5035963;28;20052;-92
2022/01/12 06:48:32;;;;;;;39.00;17.57;;;1.30;56.90;;;;;;5036332;28;20112;-90
2022/01/12 06:50:58;;;;;;;45.97;21.08;;;1.40;57.70;;;;;;5035734;28;20273;-87
2022/01/12 06:53:23;;;;;;;51.33;22.40;;;1.70;56.60;;;;;;5034601;28;20029;-86
2022/01/12 06:55:49;;;;;;;55.63;23.17;;;1.70;56.50;;;;;;5033733;28;20025;-88
2022/01/12 06:58:15;;;;;;;50.65;21.08;;;1.80;56.70;;;;;;5034284;28;20021;-87
2022/01/12 07:00:41;;;;;;;40.97;18.45;;;2.00;56.20;;;;;;5034495;28;20033;-90
2022/01/12 07:03:07;;;;;;;38.58;19.33;;;2.00;56.20;;;;;;5034870;28;20047;-86
2022/01/12 07:05:33;;;;;;;34.85;16.73;;;1.90;55.90;;;;;;5034794;28;20400;-86
2022/01/12 07:07:59;;;;;;;34.00;18.05;;;2.00;56.40;;;;;;5034792;28;20495;-86
2022/01/12 07:10:24;;;;;;;37.00;19.20;;;2.20;56.10;;;;;;5035557;28;20029;-87
2022/01/12 07:12:50;;;;;;;56.08;25.10;;;2.30;55.20;;;;;;5035830;28;20595;-88
2022/01/12 07:15:16;;;;;;;65.68;29.17;;;2.10;55.60;;;;;;5035451;28;20036;-87
2022/01/12 07:17:42;;;;;;;100.90;37.50;;;1.80;56.30;;;;;;5035353;28;20033;-89
2022/01/12 07:20:09;;;;;;;47.97;21.25;;;1.90;57.00;;;;;;5035563;28;20025;-87
2022/01/12 07:22:34;;;;;;;49.78;23.67;;;2.30;56.00;;;;;;5035055;28;20122;-86
2022/01/12 07:25:00;;;;;;;34.70;16.65;;;2.40;54.60;;;;;;5035200;28;20119;-88
2022/01/12 07:27:26;;;;;;;38.92;18.77;;;2.50;54.50;;;;;;5035762;28;20106;-87
2022/01/12 07:29:52;;;;;;;37.53;18.08;;;2.30;55.10;;;;;;5035295;28;20032;-87
2022/01/12 07:32:17;;;;;;;35.42;18.13;;;2.40;55.10;;;;;;5035172;28;20045;-87
2022/01/12 07:34:43;;;;;;;30.77;14.68;;;2.80;54.10;;;;;;5035367;28;20039;-88
2022/01/12 07:37:10;;;;;;;31.10;15.13;;;2.90;53.70;;;;;;5035288;28;20388;-88
2022/01/12 07:39:36;;;;;;;32.00;14.48;;;2.60;53.90;;;;;;5035061;28;20502;-91
2022/01/12 07:42:03;;;;;;;31.63;14.27;;;2.30;55.00;;;;;;5035619;28;20021;-87
2022/01/12 07:44:30;;;;;;;31.95;15.15;;;2.50;54.80;;;;;;5035284;28;20135;-87
2022/01/12 07:46:56;;;;;;;30.88;14.85;;;2.40;54.80;;;;;;5035089;28;20115;-87
2022/01/12 07:49:22;;;;;;;30.13;13.95;;;2.80;54.20;;;;;;5034733;28;20056;-87
2022/01/12 07:51:48;;;;;;;32.67;15.30;;;3.00;54.20;;;;;;5035326;28;20426;-88
2022/01/12 07:54:13;;;;;;;27.98;13.85;;;3.30;53.10;;;;;;5037828;28;20037;-88
2022/01/12 07:56:39;;;;;;;27.33;13.23;;;3.00;53.50;;;;;;5038666;28;20025;-88
2022/01/12 07:59:05;;;;;;;29.25;12.98;;;3.00;54.00;;;;;;5038962;28;20040;-88
2022/01/12 08:01:31;;;;;;;27.70;13.05;;;3.10;53.90;;;;;;5038800;28;20029;-91
2022/01/12 08:03:57;;;;;;;29.70;13.80;;;3.20;53.70;;;;;;5038263;28;20029;-90
2022/01/12 08:06:22;;;;;;;27.30;13.60;;;3.00;53.30;;;;;;5038535;28;20455;-89
2022/01/12 08:08:49;;;;;;;27.00;12.27;;;3.10;53.70;;;;;;5038641;28;20460;-89
2022/01/12 08:11:14;;;;;;;26.23;12.45;;;3.10;53.20;;;;;;5038434;28;20024;-90
2022/01/12 08:13:42;;;;;;;27.77;12.77;;;3.00;53.60;;;;;;5038444;28;20071;-89
2022/01/12 08:16:08;;;;;;;29.88;12.90;;;3.00;53.60;;;;;;5038750;28;20021;-88
2022/01/12 08:18:34;;;;;;;26.92;12.68;;;3.30;53.00;;;;;;5038300;28;20029;-88
2022/01/12 08:21:01;;;;;;;31.13;16.80;;;3.30;53.00;;;;;;5038912;28;20030;-89
2022/01/12 08:23:26;;;;;;;28.17;15.10;;;3.20;52.80;;;;;;5038161;28;20017;-89
2022/01/12 08:25:52;;;;;;;31.88;15.35;;;3.10;53.30;;;;;;5038035;28;20119;-89
2022/01/12 08:28:18;;;;;;;26.85;13.95;;;3.30;53.20;;;;;;5038039;28;20031;-88
2022/01/12 08:30:44;;;;;;;26.75;12.57;;;3.50;52.70;;;;;;5038045;28;20072;-87
2022/01/12 08:33:11;;;;;;;28.58;12.25;;;3.50;52.50;;;;;;5038281;28;20123;-91
2022/01/12 08:35:37;;;;;;;27.02;12.25;;;3.20;52.80;;;;;;5037930;28;20096;-87
2022/01/12 08:38:03;;;;;;;27.83;13.52;;;3.20;53.50;;;;;;5038182;28;20078;-88
2022/01/12 08:40:29;;;;;;;30.45;13.80;;;3.60;52.70;;;;;;5038158;28;20032;-88
2022/01/12 08:42:56;;;;;;;27.10;14.10;;;3.70;52.30;;;;;;5037712;28;20025;-88
2022/01/12 08:45:22;;;;;;;29.33;14.23;;;3.70;52.60;;;;;;5037958;28;20443;-88
2022/01/12 08:47:48;;;;;;;28.27;14.80;;;3.80;52.60;;;;;;5038214;28;20045;-88
2022/01/12 08:50:14;;;;;;;29.08;12.70;;;3.70;52.30;;;;;;5037524;28;20087;-87
2022/01/12 08:52:46;;;;;;;28.55;12.70;;;3.90;52.50;;;;;;5037893;28;20425;-88
2022/01/12 08:55:20;;;;;;;24.70;13.27;;;5.20;51.40;;;;;;5037623;28;20388;-88
2022/01/12 08:57:46;;;;;;;24.80;12.70;;;7.10;48.70;;;;;;5037840;28;20025;-87
2022/01/12 09:00:14;;;;;;;32.90;14.20;;;8.90;45.00;;;;;;5037515;28;20025;-86
2022/01/12 09:02:39;;;;;;;28.58;13.10;;;9.70;43.80;;;;;;5037463;28;20095;-86
2022/01/12 09:05:06;;;;;;;28.45;13.98;;;11.10;42.00;;;;;;5037005;28;20116;-87
2022/01/12 09:07:32;;;;;;;25.55;13.00;;;11.90;40.50;;;;;;5037189;28;20081;-86
2022/01/12 09:10:00;;;;;;;24.15;12.70;;;12.60;39.40;;;;;;5037125;28;20116;-86
2022/01/12 09:12:27;;;;;;;26.83;14.38;;;12.80;38.90;;;;;;5037427;28;20071;-85
2022/01/12 09:14:53;;;;;;;23.33;13.15;;;12.90;39.20;;;;;;5037313;28;20473;-86
2022/01/12 09:17:23;;;;;;;26.85;13.27;;;12.50;38.90;;;;;;5037238;28;20021;-86
2022/01/12 09:19:50;;;;;;;28.05;13.43;;;13.40;38.70;;;;;;5036984;28;20021;-85
2022/01/12 09:22:16;;;;;;;25.63;12.88;;;13.90;38.20;;;;;;5036955;28;20067;-85
2022/01/12 09:24:44;;;;;;;22.38;13.65;;;15.20;37.40;;;;;;5037241;28;20064;-85
2022/01/12 09:27:13;;;;;;;23.63;13.50;;;16.20;36.00;;;;;;5037260;28;20029;-85
2022/01/12 09:29:39;;;;;;;33.83;18.52;;;16.50;35.40;;;;;;5036969;28;20036;-85
2022/01/12 09:32:07;;;;;;;31.65;19.52;;;16.30;35.60;;;;;;5036985;28;20029;-85
2022/01/12 09:34:34;;;;;;;24.40;11.93;;;16.50;35.60;;;;;;5036620;28;20056;-84
2022/01/12 09:37:00;;;;;;;28.08;14.40;;;16.90;34.50;;;;;;5036756;28;20070;-84
2022/01/12 09:39:26;;;;;;;25.55;13.85;;;16.60;35.30;;;;;;5036757;28;20021;-85
2022/01/12 09:41:52;;;;;;;24.90;13.48;;;17.00;34.90;;;;;;5036446;28;20037;-85
2022/01/12 09:44:18;;;;;;;26.23;13.10;;;17.10;34.60;;;;;;5036486;28;20122;-86
2022/01/12 09:46:44;;;;;;;27.48;14.15;;;16.30;35.20;;;;;;5035922;28;20037;-85
2022/01/12 09:49:11;;;;;;;27.75;14.27;;;16.00;35.50;;;;;;5036225;28;20044;-84
2022/01/12 09:51:36;;;;;;;27.15;15.27;;;16.20;35.50;;;;;;5036439;28;20025;-85
2022/01/12 09:54:03;;;;;;;29.02;15.13;;;16.30;35.50;;;;;;5036494;28;20032;-86
2022/01/12 09:56:30;;;;;;;25.42;14.15;;;16.60;34.60;;;;;;5036109;28;20384;-84
2022/01/12 09:58:58;;;;;;;28.90;15.82;;;15.20;35.70;;;;;;5036277;28;20036;-83
2022/01/12 10:01:28;;;;;;;30.50;15.20;;;15.40;36.10;;;;;;5053981;28;20037;-84
2022/01/12 10:04:04;;;;;;;;;;;15.50;35.80;;;;;;5036306;28;20029;-84
2022/01/12 10:06:35;;;;;;;28.92;14.80;;;16.10;35.70;;;;;;5053785;28;20054;-84
2022/01/12 10:09:01;;;;;;;29.67;14.75;;;16.40;34.60;;;;;;5053639;28;20036;-85
2022/01/12 10:11:29;;;;;;;28.55;14.27;;;16.40;35.00;;;;;;5036102;28;20033;-84
2022/01/12 10:13:57;;;;;;;26.17;14.45;;;16.50;34.80;;;;;;5036114;28;20025;-84
2022/01/12 10:16:26;;;;;;;30.27;15.55;;;16.30;34.70;;;;;;5035155;28;20017;-85
2022/01/12 10:18:54;;;;;;;28.75;15.50;;;16.50;34.60;;;;;;5053996;28;20036;-84
2022/01/12 10:21:38;;;;;;;28.50;15.32;;;16.20;35.20;;;;;;5035957;28;20025;-85
2022/01/12 10:24:11;;;;;;;29.98;15.80;;;16.10;35.30;;;;;;5053662;28;20028;-84
2022/01/12 10:26:43;;;;;;;28.05;15.00;;;16.60;35.10;;;;;;5035406;28;20473;-84
2022/01/12 10:29:16;;;;;;;26.80;15.07;;;15.80;35.70;;;;;;5035702;28;20029;-85
2022/01/12 10:32:04;;;;;;;28.15;14.10;;;16.20;35.00;;;;;;5035788;28;20037;-85
2022/01/12 10:34:45;;;;;;;25.63;14.50;;;15.90;35.00;;;;;;5035682;28;20048;-85
2022/01/12 10:37:19;;;;;;;25.13;14.48;;;16.60;34.90;;;;;;5035499;28;20052;-85
2022/01/12 10:39:49;;;;;;;24.45;13.90;;;16.90;35.00;;;;;;5035583;28;20032;-85
2022/01/12 10:42:20;;;;;;;29.60;15.20;;;16.60;34.40;;;;;;5053477;28;20159;-86
2022/01/12 10:44:52;;;;;;;26.05;14.77;;;16.00;34.70;;;;;;5035511;28;20040;-85
2022/01/12 10:47:27;;;;;;;26.08;14.95;;;15.80;35.30;;;;;;5036018;28;20084;-86
2022/01/12 10:49:55;;;;;;;26.27;14.65;;;15.50;35.00;;;;;;5035814;28;20043;-87
2022/01/12 10:52:23;;;;;;;30.00;17.60;;;16.10;35.30;;;;;;5035452;28;20053;-86
2022/01/12 10:54:52;;;;;;;28.08;14.80;;;16.30;34.50;;;;;;5035613;28;20028;-86
2022/01/12 10:57:23;;;;;;;22.80;13.00;;;16.70;34.30;;;;;;5036244;28;20032;-87
2022/01/12 11:00:09;;;;;;;24.52;13.10;;;16.30;33.80;;;;;;5053478;28;20025;-86
2022/01/12 11:02:37;;;;;;;21.92;12.60;;;15.80;34.20;;;;;;5035553;28;20044;-85
2022/01/12 11:05:04;;;;;;;24.98;14.00;;;15.20;35.20;;;;;;5035566;28;20029;-86
2022/01/12 11:07:30;;;;;;;25.80;13.68;;;14.30;35.70;;;;;;5035482;28;20041;-87
2022/01/12 11:09:59;;;;;;;22.33;12.95;;;13.60;36.30;;;;;;5035430;28;20033;-87
2022/01/12 11:12:25;;;;;;;25.65;13.60;;;13.00;37.30;;;;;;5035415;28;20265;-86
2022/01/12 11:14:51;;;;;;;25.58;14.55;;;12.50;37.90;;;;;;5035776;28;20025;-88
2022/01/12 11:17:17;;;;;;;26.30;14.77;;;12.80;38.20;;;;;;5035641;28;20029;-87
2022/01/12 11:20:07;;;;;;;27.38;13.80;;;12.70;38.00;;;;;;5035352;28;20036;-88
2022/01/12 11:22:55;;;;;;;25.73;13.40;;;12.80;38.10;;;;;;5021288;28;20036;-88
2022/01/12 11:25:32;;;;;;;24.73;12.90;;;12.80;38.00;;;;;;5035229;28;20036;-88
2022/01/12 11:28:24;;;;;;;25.35;13.40;;;12.50;37.50;;;;;;5037498;28;20028;-88
2022/01/12 11:30:54;;;;;;;27.83;12.50;;;11.60;38.50;;;;;;5056811;28;20466;-88
2022/01/12 11:33:29;;;;;;;24.77;13.40;;;10.70;39.70;;;;;;5039221;28;20024;-87
2022/01/12 11:35:55;;;;;;;24.85;12.82;;;9.70;39.90;;;;;;5039539;28;20031;-88
2022/01/12 11:38:31;;;;;;;28.83;15.23;;;9.30;41.90;;;;;;5039273;28;20052;-88
2022/01/12 11:41:08;;;;;;;29.63;14.90;;;9.10;42.50;;;;;;5039135;28;20032;-88
2022/01/12 11:43:47;;;;;;;28.35;14.98;;;8.90;42.30;;;;;;5056811;28;20032;-87
2022/01/12 11:46:13;;;;;;;26.20;14.10;;;8.90;42.90;;;;;;5056923;28;20060;-87
2022/01/12 11:48:43;;;;;;;31.17;15.07;;;8.80;43.10;;;;;;5039812;28;20056;-88
2022/01/12 11:51:09;;;;;;;;;;;8.70;43.50;;;;;;5039287;28;20396;-88
2022/01/12 11:53:45;;;;;;;31.48;15.75;;;8.60;43.80;;;;;;5039044;28;19905;-88
2022/01/12 11:56:13;;;;;;;33.08;14.93;;;8.60;43.80;;;;;;5038789;28;20450;-88
2022/01/12 11:58:52;;;;;;;29.55;14.77;;;8.40;43.80;;;;;;5038555;28;20529;-88
2022/01/12 12:01:18;;;;;;;29.40;14.60;;;7.90;44.60;;;;;;5038798;28;20029;-88
2022/01/12 12:03:59;;;;;;;27.20;14.27;;;7.90;44.80;;;;;;5038241;28;20025;-88
2022/01/12 12:06:25;;;;;;;31.52;15.52;;;7.90;44.30;;;;;;5038686;28;20510;-88
2022/01/12 12:09:05;;;;;;;29.08;15.07;;;7.70;44.30;;;;;;5038606;28;20464;-87
2022/01/12 12:11:32;;;;;;;25.77;13.77;;;7.70;44.00;;;;;;5038543;28;20502;-88
2022/01/12 12:14:03;;;;;;;29.38;14.35;;;7.60;44.40;;;;;;5038344;28;20053;-88
2022/01/12 12:16:30;;;;;;;29.40;15.30;;;7.80;43.80;;;;;;5056200;28;20096;-88
2022/01/12 12:18:56;;;;;;;29.45;15.07;;;7.80;44.70;;;;;;5038535;28;20021;-90
2022/01/12 12:21:23;;;;;;;31.45;16.17;;;8.10;44.50;;;;;;5038468;28;20025;-88
2022/01/12 12:23:48;;;;;;;30.80;14.63;;;8.40;43.80;;;;;;5038308;28;20417;-88
2022/01/12 12:26:18;;;;;;;28.05;15.30;;;8.30;43.90;;;;;;5038348;28;20555;-88
2022/01/12 12:28:55;;;;;;;26.63;13.60;;;8.20;44.30;;;;;;5055793;28;20150;-87
2022/01/12 12:31:23;;;;;;;26.10;13.02;;;8.30;44.00;;;;;;5038072;28;20029;-88
2022/01/12 12:34:02;;;;;;;26.13;13.88;;;8.20;44.10;;;;;;5038197;28;20025;-88
2022/01/12 12:36:28;;;;;;;26.58;13.90;;;8.30;44.00;;;;;;5055693;28;20025;-88
2022/01/12 12:39:10;;;;;;;28.20;14.82;;;8.20;44.20;;;;;;5037728;28;20025;-88
2022/01/12 12:41:38;;;;;;;29.10;14.25;;;8.60;44.00;;;;;;5037944;28;20021;-88
2022/01/12 12:44:04;;;;;;;29.23;13.93;;;8.30;43.60;;;;;;5055641;28;20040;-88
2022/01/12 12:46:30;;;;;;;24.73;12.93;;;8.10;44.30;;;;;;5055550;28;20027;-89
2022/01/12 12:48:56;;;;;;;26.88;13.98;;;8.00;43.90;;;;;;5037280;28;20029;-89
2022/01/12 12:51:22;;;;;;;27.17;14.40;;;8.20;44.00;;;;;;5038404;28;20029;-88
2022/01/12 12:53:52;;;;;;;26.33;14.27;;;8.40;44.00;;;;;;5055225;28;20438;-88
2022/01/12 12:56:21;;;;;;;26.73;14.45;;;8.40;44.40;;;;;;5037725;28;20029;-88
2022/01/12 12:58:51;;;;;;;38.55;17.98;;;8.20;44.10;;;;;;5037720;28;20150;-89
2022/01/12 13:01:18;;;;;;;27.33;13.68;;;7.90;44.20;;;;;;5037607;28;20033;-88
2022/01/12 13:03:52;;;;;;;34.35;16.13;;;7.80;44.20;;;;;;5037435;28;20039;-89
2022/01/12 13:06:26;;;;;;;42.83;19.15;;;7.80;45.00;;;;;;5037586;28;20057;-88
2022/01/12 13:08:54;;;;;;;28.80;14.80;;;8.00;44.80;;;;;;5037600;28;20111;-89
2022/01/12 13:11:28;;;;;;;26.27;13.90;;;7.80;45.00;;;;;;5037220;28;20120;-88
2022/01/12 13:14:03;;;;;;;27.83;15.27;;;7.20;45.30;;;;;;5055177;28;20024;-88
2022/01/12 13:16:29;;;;;;;29.45;16.38;;;7.00;46.10;;;;;;5030242;28;20039;-88
2022/01/12 13:19:20;;;;;;;32.50;14.57;;;6.90;46.10;;;;;;5037502;28;20032;-87
2022/01/12 13:21:46;;;;;;;24.10;11.90;;;6.70;46.40;;;;;;5037230;28;20024;-89
2022/01/12 13:24:13;;;;;;;25.73;13.25;;;6.40;46.60;;;;;;5037258;28;20032;-88
2022/01/12 13:26:39;;;;;;;27.05;13.38;;;6.50;47.00;;;;;;5037176;28;20048;-89
2022/01/12 13:29:07;;;;;;;22.17;12.60;;;6.70;46.80;;;;;;5036872;28;20494;-89
2022/01/12 13:31:33;;;;;;;22.45;12.18;;;7.00;46.40;;;;;;5037049;28;20434;-90
2022/01/12 13:34:01;;;;;;;23.67;12.40;;;7.10;46.10;;;;;;5037147;28;20050;-89
2022/01/12 13:36:30;;;;;;;21.95;11.90;;;7.30;46.20;;;;;;5036810;28;20029;-89
2022/01/12 13:38:59;;;;;;;22.92;11.98;;;7.30;45.70;;;;;;5036972;28;20051;-89
2022/01/12 13:41:30;;;;;;;24.00;12.48;;;7.30;46.00;;;;;;5036904;28;20025;-87
2022/01/12 13:44:06;;;;;;;22.05;11.32;;;7.20;46.10;;;;;;5036564;28;20025;-89
2022/01/12 13:46:37;;;;;;;21.55;11.45;;;7.10;45.90;;;;;;5037117;28;20052;-89
2022/01/12 13:51:43;;;;;;;23.83;12.23;;;7.00;46.50;;;;;;5053557;28;20052;-89
2022/01/12 13:54:14;;;;;;;25.48;12.98;;;6.90;46.20;;;;;;5036653;28;20027;-89
2022/01/12 13:56:46;;;;;;;30.05;14.25;;;6.80;46.90;;;;;;5054474;28;20025;-89
2022/01/12 13:59:14;;;;;;;21.50;11.65;;;6.90;46.30;;;;;;5036620;28;20025;-89
2022/01/12 14:01:42;;;;;;;22.88;11.38;;;6.80;46.80;;;;;;5036432;28;20476;-88
2022/01/12 14:04:21;;;;;;;25.48;13.48;;;6.60;46.80;;;;;;5036256;28;20025;-88
2022/01/12 14:06:51;;;;;;;60.80;25.70;;;6.70;46.80;;;;;;5054224;28;20559;-88